sensor_id;sensor_type;location;lat;lon;timestamp;temperature;humidity
25208;DHT22;13153;52.316;21.166;2023-08-01T00:01:02;19.50;99.90
25208;DHT22;13153;52.316;21.166;2023-08-01T00:03:28;19.50;99.90
25208;DHT22;13153;52.316;21.166;2023-08-01T00:05:54;19.50;99.90
25208;DHT22;13153;52.316;21.166;2023-08-01T00:08:20;19.50;99.90
25208;DHT22;13153;52.316;21.166;2023-08-01T00:10:47;19.50;99.90
25208;DHT22;13153;52.316;21.166;2023-08-01T00:13:12;19.50;99.90
25208;DHT22;13153;52.316;21.166;2023-08-01T00:15:38;19.50;99.90
25208;DHT22;13153;52.316;21.166;2023-08-01T00:18:04;19.50;99.90
25208;DHT22;13153;52.316;21.166;2023-08-01T00:20:30;19.50;99.90
25208;DHT22;13153;52.316;21.166;2023-08-01T00:22:56;19.50;99.90
25208;DHT22;13153;52.316;21.166;2023-08-01T00:25:22;19.50;99.90
25208;DHT22;13153;52.316;21.166;2023-08-01T00:27:48;19.40;99.90
25208;DHT22;13153;52.316;21.166;2023-08-01T00:30:14;19.40;99.90
25208;DHT22;13153;52.316;21.166;2023-08-01T00:32:39;19.40;99.90
25208;DHT22;13153;52.316;21.166;2023-08-01T00:35:05;19.40;99.90
25208;DHT22;13153;52.316;21.166;2023-08-01T00:37:31;19.40;99.90
25208;DHT22;13153;52.316;21.166;2023-08-01T00:39:57;19.40;99.90
25208;DHT22;13153;52.316;21.166;2023-08-01T00:42:23;19.40;99.90
25208;DHT22;13153;52.316;21.166;2023-08-01T00:44:48;19.40;99.90
25208;DHT22;13153;52.316;21.166;2023-08-01T00:47:15;19.30;99.90
25208;DHT22;13153;52.316;21.166;2023-08-01T00:49:41;19.30;99.90
25208;DHT22;13153;52.316;21.166;2023-08-01T00:52:08;19.30;99.90
25208;DHT22;13153;52.316;21.166;2023-08-01T00:54:35;19.30;99.90
25208;DHT22;13153;52.316;21.166;2023-08-01T00:57:05;19.30;99.90
25208;DHT22;13153;52.316;21.166;2023-08-01T00:59:32;19.30;99.90
25208;DHT22;13153;52.316;21.166;2023-08-01T01:02:01;19.30;99.90
25208;DHT22;13153;52.316;21.166;2023-08-01T01:04:27;19.20;99.90
25208;DHT22;13153;52.316;21.166;2023-08-01T01:07:03;19.20;99.90
25208;DHT22;13153;52.316;21.166;2023-08-01T01:09:31;19.20;99.90
25208;DHT22;13153;52.316;21.166;2023-08-01T01:11:58;19.30;99.90
25208;DHT22;13153;52.316;21.166;2023-08-01T01:14:26;19.30;99.90
25208;DHT22;13153;52.316;21.166;2023-08-01T01:16:52;19.20;99.90
25208;DHT22;13153;52.316;21.166;2023-08-01T01:19:18;19.30;99.90
25208;DHT22;13153;52.316;21.166;2023-08-01T01:21:45;19.30;99.90
25208;DHT22;13153;52.316;21.166;2023-08-01T01:24:13;19.30;99.90
25208;DHT22;13153;52.316;21.166;2023-08-01T01:26:41;19.30;99.90
25208;DHT22;13153;52.316;21.166;2023-08-01T01:29:09;19.20;99.90
25208;DHT22;13153;52.316;21.166;2023-08-01T01:31:37;19.20;99.90
25208;DHT22;13153;52.316;21.166;2023-08-01T01:34:04;19.20;99.90
25208;DHT22;13153;52.316;21.166;2023-08-01T01:36:30;19.20;99.90
25208;DHT22;13153;52.316;21.166;2023-08-01T01:38:56;19.10;99.90
25208;DHT22;13153;52.316;21.166;2023-08-01T01:41:22;19.10;99.90
25208;DHT22;13153;52.316;21.166;2023-08-01T01:43:48;19.10;99.90
25208;DHT22;13153;52.316;21.166;2023-08-01T01:46:14;19.10;99.90
25208;DHT22;13153;52.316;21.166;2023-08-01T01:48:40;19.10;99.90
25208;DHT22;13153;52.316;21.166;2023-08-01T01:51:07;19.10;99.90
25208;DHT22;13153;52.316;21.166;2023-08-01T01:53:33;19.00;99.90
25208;DHT22;13153;52.316;21.166;2023-08-01T01:55:59;19.00;99.90
25208;DHT22;13153;52.316;21.166;2023-08-01T01:58:25;18.90;99.90
25208;DHT22;13153;52.316;21.166;2023-08-01T02:00:51;18.90;99.90
25208;DHT22;13153;52.316;21.166;2023-08-01T02:03:17;18.90;99.90
25208;DHT22;13153;52.316;21.166;2023-08-01T02:05:44;18.90;99.90
25208;DHT22;13153;52.316;21.166;2023-08-01T02:08:10;18.90;99.90
25208;DHT22;13153;52.316;21.166;2023-08-01T02:10:36;18.80;99.90
25208;DHT22;13153;52.316;21.166;2023-08-01T02:13:01;18.80;99.90
25208;DHT22;13153;52.316;21.166;2023-08-01T02:15:27;18.80;99.90
25208;DHT22;13153;52.316;21.166;2023-08-01T02:17:53;18.80;99.90
25208;DHT22;13153;52.316;21.166;2023-08-01T02:20:19;18.70;99.90
25208;DHT22;13153;52.316;21.166;2023-08-01T02:22:45;18.70;99.90
25208;DHT22;13153;52.316;21.166;2023-08-01T02:25:10;18.70;99.90
25208;DHT22;13153;52.316;21.166;2023-08-01T02:27:36;18.70;99.90
25208;DHT22;13153;52.316;21.166;2023-08-01T02:30:02;18.60;99.90
25208;DHT22;13153;52.316;21.166;2023-08-01T02:32:30;18.70;99.90
25208;DHT22;13153;52.316;21.166;2023-08-01T02:34:56;18.60;99.90
25208;DHT22;13153;52.316;21.166;2023-08-01T02:37:22;18.60;99.90
25208;DHT22;13153;52.316;21.166;2023-08-01T02:39:48;18.50;99.90
25208;DHT22;13153;52.316;21.166;2023-08-01T02:42:13;18.50;99.90
25208;DHT22;13153;52.316;21.166;2023-08-01T02:44:39;18.50;99.90
25208;DHT22;13153;52.316;21.166;2023-08-01T02:47:05;18.50;99.90
25208;DHT22;13153;52.316;21.166;2023-08-01T02:49:31;18.60;99.90
25208;DHT22;13153;52.316;21.166;2023-08-01T02:51:58;18.50;99.90
25208;DHT22;13153;52.316;21.166;2023-08-01T02:54:24;18.50;99.90
25208;DHT22;13153;52.316;21.166;2023-08-01T02:56:50;18.50;99.90
25208;DHT22;13153;52.316;21.166;2023-08-01T02:59:16;18.50;99.90
25208;DHT22;13153;52.316;21.166;2023-08-01T03:01:45;18.50;99.90
25208;DHT22;13153;52.316;21.166;2023-08-01T03:04:11;18.40;99.90
25208;DHT22;13153;52.316;21.166;2023-08-01T03:06:40;18.40;99.90
25208;DHT22;13153;52.316;21.166;2023-08-01T03:09:06;18.40;99.90
25208;DHT22;13153;52.316;21.166;2023-08-01T03:11:35;18.40;99.90
25208;DHT22;13153;52.316;21.166;2023-08-01T03:14:01;18.30;99.90
25208;DHT22;13153;52.316;21.166;2023-08-01T03:16:27;18.30;99.90
25208;DHT22;13153;52.316;21.166;2023-08-01T03:18:53;18.30;99.90
25208;DHT22;13153;52.316;21.166;2023-08-01T03:21:19;18.40;99.90
25208;DHT22;13153;52.316;21.166;2023-08-01T03:23:44;18.40;99.90
25208;DHT22;13153;52.316;21.166;2023-08-01T03:26:10;18.30;99.90
25208;DHT22;13153;52.316;21.166;2023-08-01T03:28:36;18.40;99.90
25208;DHT22;13153;52.316;21.166;2023-08-01T03:31:02;18.40;99.90
25208;DHT22;13153;52.316;21.166;2023-08-01T03:33:28;18.50;99.90
25208;DHT22;13153;52.316;21.166;2023-08-01T03:35:53;18.60;99.90
25208;DHT22;13153;52.316;21.166;2023-08-01T03:38:19;18.80;99.90
25208;DHT22;13153;52.316;21.166;2023-08-01T03:40:45;18.70;99.90
25208;DHT22;13153;52.316;21.166;2023-08-01T03:43:11;18.70;99.90
25208;DHT22;13153;52.316;21.166;2023-08-01T03:45:36;18.60;99.90
25208;DHT22;13153;52.316;21.166;2023-08-01T03:48:02;18.60;99.90
25208;DHT22;13153;52.316;21.166;2023-08-01T03:50:28;18.60;99.90
25208;DHT22;13153;52.316;21.166;2023-08-01T03:52:54;18.50;99.90
25208;DHT22;13153;52.316;21.166;2023-08-01T03:55:19;18.50;99.90
25208;DHT22;13153;52.316;21.166;2023-08-01T03:57:45;18.50;99.90
25208;DHT22;13153;52.316;21.166;2023-08-01T04:00:11;18.50;99.90
25208;DHT22;13153;52.316;21.166;2023-08-01T04:02:44;18.50;99.90
25208;DHT22;13153;52.316;21.166;2023-08-01T04:05:10;18.50;99.90
25208;DHT22;13153;52.316;21.166;2023-08-01T04:07:37;18.50;99.90
25208;DHT22;13153;52.316;21.166;2023-08-01T04:10:03;18.50;99.90
25208;DHT22;13153;52.316;21.166;2023-08-01T04:12:31;18.50;99.90
25208;DHT22;13153;52.316;21.166;2023-08-01T04:14:58;18.60;99.90
25208;DHT22;13153;52.316;21.166;2023-08-01T04:17:24;18.60;99.90
25208;DHT22;13153;52.316;21.166;2023-08-01T04:19:50;18.60;99.90
25208;DHT22;13153;52.316;21.166;2023-08-01T04:22:15;18.70;99.90
25208;DHT22;13153;52.316;21.166;2023-08-01T04:24:41;18.80;99.90
25208;DHT22;13153;52.316;21.166;2023-08-01T04:27:07;18.80;99.90
25208;DHT22;13153;52.316;21.166;2023-08-01T04:29:33;18.80;99.90
25208;DHT22;13153;52.316;21.166;2023-08-01T04:31:59;18.90;99.90
25208;DHT22;13153;52.316;21.166;2023-08-01T04:34:25;18.90;99.90
25208;DHT22;13153;52.316;21.166;2023-08-01T04:36:51;18.90;99.90
25208;DHT22;13153;52.316;21.166;2023-08-01T04:39:16;19.00;99.90
25208;DHT22;13153;52.316;21.166;2023-08-01T04:41:42;19.00;99.90
25208;DHT22;13153;52.316;21.166;2023-08-01T04:44:08;19.10;99.90
25208;DHT22;13153;52.316;21.166;2023-08-01T04:46:34;19.20;99.90
25208;DHT22;13153;52.316;21.166;2023-08-01T04:48:59;19.10;99.90
25208;DHT22;13153;52.316;21.166;2023-08-01T04:51:25;19.20;99.90
25208;DHT22;13153;52.316;21.166;2023-08-01T04:53:51;19.20;99.90
25208;DHT22;13153;52.316;21.166;2023-08-01T04:56:17;19.30;99.90
25208;DHT22;13153;52.316;21.166;2023-08-01T04:58:43;19.30;99.90
25208;DHT22;13153;52.316;21.166;2023-08-01T05:01:08;19.30;99.90
25208;DHT22;13153;52.316;21.166;2023-08-01T05:03:34;19.30;99.90
25208;DHT22;13153;52.316;21.166;2023-08-01T05:06:00;19.40;99.90
25208;DHT22;13153;52.316;21.166;2023-08-01T05:08:26;19.50;99.90
25208;DHT22;13153;52.316;21.166;2023-08-01T05:10:51;19.70;99.90
25208;DHT22;13153;52.316;21.166;2023-08-01T05:13:18;19.90;99.90
25208;DHT22;13153;52.316;21.166;2023-08-01T05:15:44;20.40;99.90
25208;DHT22;13153;52.316;21.166;2023-08-01T05:18:13;20.70;99.90
25208;DHT22;13153;52.316;21.166;2023-08-01T05:20:39;21.20;99.90
25208;DHT22;13153;52.316;21.166;2023-08-01T05:23:05;21.40;99.90
25208;DHT22;13153;52.316;21.166;2023-08-01T05:25:31;21.90;99.90
25208;DHT22;13153;52.316;21.166;2023-08-01T05:27:57;22.60;99.90
25208;DHT22;13153;52.316;21.166;2023-08-01T05:30:24;23.00;99.90
25208;DHT22;13153;52.316;21.166;2023-08-01T05:32:50;23.40;99.90
25208;DHT22;13153;52.316;21.166;2023-08-01T05:35:17;23.80;99.90
25208;DHT22;13153;52.316;21.166;2023-08-01T05:37:43;24.10;99.90
25208;DHT22;13153;52.316;21.166;2023-08-01T05:40:09;23.40;99.90
25208;DHT22;13153;52.316;21.166;2023-08-01T05:42:35;23.10;99.90
25208;DHT22;13153;52.316;21.166;2023-08-01T05:45:01;22.70;99.90
25208;DHT22;13153;52.316;21.166;2023-08-01T05:47:27;22.40;99.90
25208;DHT22;13153;52.316;21.166;2023-08-01T05:49:53;22.20;99.90
25208;DHT22;13153;52.316;21.166;2023-08-01T05:52:19;21.80;99.90
25208;DHT22;13153;52.316;21.166;2023-08-01T05:54:44;21.50;99.90
25208;DHT22;13153;52.316;21.166;2023-08-01T05:57:10;21.30;99.90
25208;DHT22;13153;52.316;21.166;2023-08-01T05:59:36;21.10;99.90
25208;DHT22;13153;52.316;21.166;2023-08-01T06:02:02;21.10;99.90
25208;DHT22;13153;52.316;21.166;2023-08-01T06:04:28;21.10;99.90
25208;DHT22;13153;52.316;21.166;2023-08-01T06:06:54;21.10;99.90
25208;DHT22;13153;52.316;21.166;2023-08-01T06:09:20;21.20;99.90
25208;DHT22;13153;52.316;21.166;2023-08-01T06:11:46;21.20;99.90
25208;DHT22;13153;52.316;21.166;2023-08-01T06:14:12;21.30;99.90
25208;DHT22;13153;52.316;21.166;2023-08-01T06:16:37;21.20;99.90
25208;DHT22;13153;52.316;21.166;2023-08-01T06:19:03;21.20;99.90
25208;DHT22;13153;52.316;21.166;2023-08-01T06:21:29;21.30;99.90
25208;DHT22;13153;52.316;21.166;2023-08-01T06:23:55;21.30;99.90
25208;DHT22;13153;52.316;21.166;2023-08-01T06:26:21;21.30;99.90
25208;DHT22;13153;52.316;21.166;2023-08-01T06:28:46;21.40;99.90
25208;DHT22;13153;52.316;21.166;2023-08-01T06:31:12;21.60;99.90
25208;DHT22;13153;52.316;21.166;2023-08-01T06:33:38;21.80;99.90
25208;DHT22;13153;52.316;21.166;2023-08-01T06:36:05;22.10;99.90
25208;DHT22;13153;52.316;21.166;2023-08-01T06:38:31;22.40;99.90
25208;DHT22;13153;52.316;21.166;2023-08-01T06:40:56;22.70;99.90
25208;DHT22;13153;52.316;21.166;2023-08-01T06:43:22;22.80;99.90
25208;DHT22;13153;52.316;21.166;2023-08-01T06:45:50;22.80;99.90
25208;DHT22;13153;52.316;21.166;2023-08-01T06:48:16;22.80;99.90
25208;DHT22;13153;52.316;21.166;2023-08-01T06:50:41;22.80;99.90
25208;DHT22;13153;52.316;21.166;2023-08-01T06:53:07;22.80;99.90
25208;DHT22;13153;52.316;21.166;2023-08-01T06:55:34;23.00;99.90
25208;DHT22;13153;52.316;21.166;2023-08-01T06:58:00;23.20;99.90
25208;DHT22;13153;52.316;21.166;2023-08-01T07:00:25;23.20;99.90
25208;DHT22;13153;52.316;21.166;2023-08-01T07:02:51;23.20;99.90
25208;DHT22;13153;52.316;21.166;2023-08-01T07:05:17;23.10;99.90
25208;DHT22;13153;52.316;21.166;2023-08-01T07:07:43;23.10;99.90
25208;DHT22;13153;52.316;21.166;2023-08-01T07:10:08;23.10;99.90
25208;DHT22;13153;52.316;21.166;2023-08-01T07:12:34;23.10;99.90
25208;DHT22;13153;52.316;21.166;2023-08-01T07:15:01;23.30;99.90
25208;DHT22;13153;52.316;21.166;2023-08-01T07:17:27;23.40;99.90
25208;DHT22;13153;52.316;21.166;2023-08-01T07:19:52;23.30;99.90
25208;DHT22;13153;52.316;21.166;2023-08-01T07:22:20;23.20;99.90
25208;DHT22;13153;52.316;21.166;2023-08-01T07:24:46;23.10;99.90
25208;DHT22;13153;52.316;21.166;2023-08-01T07:27:11;22.90;99.90
25208;DHT22;13153;52.316;21.166;2023-08-01T07:29:37;22.70;99.90
25208;DHT22;13153;52.316;21.166;2023-08-01T07:32:04;22.80;99.90
25208;DHT22;13153;52.316;21.166;2023-08-01T07:34:30;22.80;99.90
25208;DHT22;13153;52.316;21.166;2023-08-01T07:36:56;22.80;99.90
25208;DHT22;13153;52.316;21.166;2023-08-01T07:39:22;23.00;99.90
25208;DHT22;13153;52.316;21.166;2023-08-01T07:41:47;23.00;99.90
25208;DHT22;13153;52.316;21.166;2023-08-01T07:44:13;23.10;99.90
25208;DHT22;13153;52.316;21.166;2023-08-01T07:46:39;23.50;99.90
25208;DHT22;13153;52.316;21.166;2023-08-01T07:49:05;23.70;99.90
25208;DHT22;13153;52.316;21.166;2023-08-01T07:51:30;24.10;99.90
25208;DHT22;13153;52.316;21.166;2023-08-01T07:53:57;24.10;99.90
25208;DHT22;13153;52.316;21.166;2023-08-01T07:56:22;24.10;99.90
25208;DHT22;13153;52.316;21.166;2023-08-01T07:58:48;24.00;99.90
25208;DHT22;13153;52.316;21.166;2023-08-01T08:01:14;23.90;99.90
25208;DHT22;13153;52.316;21.166;2023-08-01T08:03:40;23.90;99.90
25208;DHT22;13153;52.316;21.166;2023-08-01T08:06:05;23.90;99.90
25208;DHT22;13153;52.316;21.166;2023-08-01T08:08:31;23.90;99.90
25208;DHT22;13153;52.316;21.166;2023-08-01T08:11:02;24.10;99.90
25208;DHT22;13153;52.316;21.166;2023-08-01T08:13:28;24.20;99.90
25208;DHT22;13153;52.316;21.166;2023-08-01T08:15:57;24.50;99.90
25208;DHT22;13153;52.316;21.166;2023-08-01T08:18:24;24.80;99.90
25208;DHT22;13153;52.316;21.166;2023-08-01T08:20:50;24.80;99.90
25208;DHT22;13153;52.316;21.166;2023-08-01T08:23:16;24.90;99.90
25208;DHT22;13153;52.316;21.166;2023-08-01T08:25:42;24.90;99.90
25208;DHT22;13153;52.316;21.166;2023-08-01T08:28:13;25.00;99.90
25208;DHT22;13153;52.316;21.166;2023-08-01T08:30:39;24.80;99.90
25208;DHT22;13153;52.316;21.166;2023-08-01T08:33:05;24.60;99.90
25208;DHT22;13153;52.316;21.166;2023-08-01T08:35:33;24.40;99.90
25208;DHT22;13153;52.316;21.166;2023-08-01T08:38:02;24.40;99.90
25208;DHT22;13153;52.316;21.166;2023-08-01T08:40:34;24.40;99.90
25208;DHT22;13153;52.316;21.166;2023-08-01T08:43:05;24.50;99.90
25208;DHT22;13153;52.316;21.166;2023-08-01T08:45:34;24.50;99.90
25208;DHT22;13153;52.316;21.166;2023-08-01T08:48:02;24.50;99.90
25208;DHT22;13153;52.316;21.166;2023-08-01T08:50:35;24.50;99.90
25208;DHT22;13153;52.316;21.166;2023-08-01T08:53:02;24.50;99.90
25208;DHT22;13153;52.316;21.166;2023-08-01T08:55:29;24.20;99.90
25208;DHT22;13153;52.316;21.166;2023-08-01T08:57:57;24.10;99.90
25208;DHT22;13153;52.316;21.166;2023-08-01T09:00:25;24.00;99.90
25208;DHT22;13153;52.316;21.166;2023-08-01T09:02:53;24.00;99.90
25208;DHT22;13153;52.316;21.166;2023-08-01T09:05:20;24.10;99.90
25208;DHT22;13153;52.316;21.166;2023-08-01T09:07:51;24.00;99.90
25208;DHT22;13153;52.316;21.166;2023-08-01T09:10:19;24.10;99.90
25208;DHT22;13153;52.316;21.166;2023-08-01T09:12:45;24.00;99.90
25208;DHT22;13153;52.316;21.166;2023-08-01T09:15:11;24.00;99.90
25208;DHT22;13153;52.316;21.166;2023-08-01T09:17:52;23.90;99.90
25208;DHT22;13153;52.316;21.166;2023-08-01T09:20:20;23.80;99.90
25208;DHT22;13153;52.316;21.166;2023-08-01T09:22:47;23.60;99.90
25208;DHT22;13153;52.316;21.166;2023-08-01T09:25:13;23.50;99.90
25208;DHT22;13153;52.316;21.166;2023-08-01T09:27:39;23.40;99.90
25208;DHT22;13153;52.316;21.166;2023-08-01T09:30:13;23.40;99.90
25208;DHT22;13153;52.316;21.166;2023-08-01T09:32:54;23.30;99.90
25208;DHT22;13153;52.316;21.166;2023-08-01T09:35:21;23.20;99.90
25208;DHT22;13153;52.316;21.166;2023-08-01T09:37:48;23.20;99.90
25208;DHT22;13153;52.316;21.166;2023-08-01T09:40:14;23.20;99.90
25208;DHT22;13153;52.316;21.166;2023-08-01T09:42:42;23.20;99.90
25208;DHT22;13153;52.316;21.166;2023-08-01T09:45:18;23.20;99.90
25208;DHT22;13153;52.316;21.166;2023-08-01T09:47:45;23.40;99.90
25208;DHT22;13153;52.316;21.166;2023-08-01T09:50:11;23.50;99.90
25208;DHT22;13153;52.316;21.166;2023-08-01T09:52:45;23.60;99.90
25208;DHT22;13153;52.316;21.166;2023-08-01T09:55:32;23.80;99.90
25208;DHT22;13153;52.316;21.166;2023-08-01T09:57:59;24.00;99.90
25208;DHT22;13153;52.316;21.166;2023-08-01T10:00:27;24.10;99.90
25208;DHT22;13153;52.316;21.166;2023-08-01T10:02:57;24.30;99.90
25208;DHT22;13153;52.316;21.166;2023-08-01T10:05:29;24.30;99.90
25208;DHT22;13153;52.316;21.166;2023-08-01T10:07:58;24.20;99.90
25208;DHT22;13153;52.316;21.166;2023-08-01T10:10:26;24.10;99.90
25208;DHT22;13153;52.316;21.166;2023-08-01T10:12:54;24.10;99.90
25208;DHT22;13153;52.316;21.166;2023-08-01T10:15:27;24.10;99.90
25208;DHT22;13153;52.316;21.166;2023-08-01T10:17:54;24.00;99.90
25208;DHT22;13153;52.316;21.166;2023-08-01T10:20:21;24.00;99.90
25208;DHT22;13153;52.316;21.166;2023-08-01T10:22:49;24.10;99.90
25208;DHT22;13153;52.316;21.166;2023-08-01T10:25:17;24.20;99.90
25208;DHT22;13153;52.316;21.166;2023-08-01T10:27:44;24.20;99.90
25208;DHT22;13153;52.316;21.166;2023-08-01T10:30:10;24.10;99.90
25208;DHT22;13153;52.316;21.166;2023-08-01T10:32:39;24.10;99.90
25208;DHT22;13153;52.316;21.166;2023-08-01T10:35:06;24.10;99.90
25208;DHT22;13153;52.316;21.166;2023-08-01T10:37:42;23.90;99.90
25208;DHT22;13153;52.316;21.166;2023-08-01T10:40:10;23.90;99.90
25208;DHT22;13153;52.316;21.166;2023-08-01T10:42:45;23.80;99.90
25208;DHT22;13153;52.316;21.166;2023-08-01T10:45:23;23.60;99.90
25208;DHT22;13153;52.316;21.166;2023-08-01T10:47:50;23.50;99.90
25208;DHT22;13153;52.316;21.166;2023-08-01T10:50:17;23.40;99.90
25208;DHT22;13153;52.316;21.166;2023-08-01T10:52:44;23.20;99.90
25208;DHT22;13153;52.316;21.166;2023-08-01T10:55:10;23.00;99.90
25208;DHT22;13153;52.316;21.166;2023-08-01T10:57:47;22.90;99.90
25208;DHT22;13153;52.316;21.166;2023-08-01T11:00:16;22.70;99.90
25208;DHT22;13153;52.316;21.166;2023-08-01T11:02:49;22.70;99.90
25208;DHT22;13153;52.316;21.166;2023-08-01T11:05:17;22.70;99.90
25208;DHT22;13153;52.316;21.166;2023-08-01T11:07:53;22.80;99.90
25208;DHT22;13153;52.316;21.166;2023-08-01T11:10:23;22.80;99.90
25208;DHT22;13153;52.316;21.166;2023-08-01T11:12:50;22.70;99.90
25208;DHT22;13153;52.316;21.166;2023-08-01T11:15:16;22.60;99.90
25208;DHT22;13153;52.316;21.166;2023-08-01T11:17:45;22.70;99.90
25208;DHT22;13153;52.316;21.166;2023-08-01T11:20:13;22.70;99.90
25208;DHT22;13153;52.316;21.166;2023-08-01T11:22:53;22.60;99.90
25208;DHT22;13153;52.316;21.166;2023-08-01T11:25:39;22.60;99.90
25208;DHT22;13153;52.316;21.166;2023-08-01T11:28:13;22.60;99.90
25208;DHT22;13153;52.316;21.166;2023-08-01T11:30:41;22.60;99.90
25208;DHT22;13153;52.316;21.166;2023-08-01T11:35:49;22.50;99.90
25208;DHT22;13153;52.316;21.166;2023-08-01T11:38:17;22.60;99.90
25208;DHT22;13153;52.316;21.166;2023-08-01T11:40:43;22.70;99.90
25208;DHT22;13153;52.316;21.166;2023-08-01T11:43:10;22.70;99.90
25208;DHT22;13153;52.316;21.166;2023-08-01T11:45:35;22.70;99.90
25208;DHT22;13153;52.316;21.166;2023-08-01T11:48:01;22.80;99.90
25208;DHT22;13153;52.316;21.166;2023-08-01T11:50:27;22.80;99.90
25208;DHT22;13153;52.316;21.166;2023-08-01T11:52:53;22.70;99.90
25208;DHT22;13153;52.316;21.166;2023-08-01T11:55:25;22.60;99.90
25208;DHT22;13153;52.316;21.166;2023-08-01T11:57:56;22.60;99.90
25208;DHT22;13153;52.316;21.166;2023-08-01T12:00:25;22.60;99.90
25208;DHT22;13153;52.316;21.166;2023-08-01T12:03:03;22.70;99.90
25208;DHT22;13153;52.316;21.166;2023-08-01T12:05:31;22.60;99.90
25208;DHT22;13153;52.316;21.166;2023-08-01T12:08:08;22.60;99.90
25208;DHT22;13153;52.316;21.166;2023-08-01T12:10:39;22.70;99.90
25208;DHT22;13153;52.316;21.166;2023-08-01T12:13:06;22.80;99.90
25208;DHT22;13153;52.316;21.166;2023-08-01T12:15:32;22.90;99.90
25208;DHT22;13153;52.316;21.166;2023-08-01T12:17:58;23.10;99.90
25208;DHT22;13153;52.316;21.166;2023-08-01T12:20:24;23.00;99.90
25208;DHT22;13153;52.316;21.166;2023-08-01T12:22:49;23.10;99.90
25208;DHT22;13153;52.316;21.166;2023-08-01T12:25:15;23.20;99.90
25208;DHT22;13153;52.316;21.166;2023-08-01T12:27:41;23.00;99.90
25208;DHT22;13153;52.316;21.166;2023-08-01T12:30:07;23.00;99.90
25208;DHT22;13153;52.316;21.166;2023-08-01T12:32:33;22.90;99.90
25208;DHT22;13153;52.316;21.166;2023-08-01T12:35:00;22.80;99.90
25208;DHT22;13153;52.316;21.166;2023-08-01T12:37:26;22.70;99.90
25208;DHT22;13153;52.316;21.166;2023-08-01T12:39:51;22.70;99.90
25208;DHT22;13153;52.316;21.166;2023-08-01T12:42:18;22.60;99.90
25208;DHT22;13153;52.316;21.166;2023-08-01T12:44:44;22.70;99.90
25208;DHT22;13153;52.316;21.166;2023-08-01T12:47:10;22.60;99.90
25208;DHT22;13153;52.316;21.166;2023-08-01T12:49:36;22.60;99.90
25208;DHT22;13153;52.316;21.166;2023-08-01T12:52:03;22.60;99.90
25208;DHT22;13153;52.316;21.166;2023-08-01T12:54:29;22.60;99.90
25208;DHT22;13153;52.316;21.166;2023-08-01T12:56:54;22.70;99.90
25208;DHT22;13153;52.316;21.166;2023-08-01T12:59:20;22.60;99.90
25208;DHT22;13153;52.316;21.166;2023-08-01T13:01:46;22.60;99.90
25208;DHT22;13153;52.316;21.166;2023-08-01T13:04:11;22.60;99.90
25208;DHT22;13153;52.316;21.166;2023-08-01T13:06:37;22.60;99.90
25208;DHT22;13153;52.316;21.166;2023-08-01T13:09:03;22.70;99.90
25208;DHT22;13153;52.316;21.166;2023-08-01T13:11:29;22.70;99.90
25208;DHT22;13153;52.316;21.166;2023-08-01T13:13:55;22.70;99.90
25208;DHT22;13153;52.316;21.166;2023-08-01T13:16:21;22.70;99.90
25208;DHT22;13153;52.316;21.166;2023-08-01T13:18:47;22.70;99.90
25208;DHT22;13153;52.316;21.166;2023-08-01T13:21:13;22.90;99.90
25208;DHT22;13153;52.316;21.166;2023-08-01T13:23:39;23.00;99.90
25208;DHT22;13153;52.316;21.166;2023-08-01T13:26:05;23.00;99.90
25208;DHT22;13153;52.316;21.166;2023-08-01T13:28:30;23.10;99.90
25208;DHT22;13153;52.316;21.166;2023-08-01T13:30:56;23.10;99.90
25208;DHT22;13153;52.316;21.166;2023-08-01T13:33:22;23.10;99.90
25208;DHT22;13153;52.316;21.166;2023-08-01T13:35:51;23.00;99.90
25208;DHT22;13153;52.316;21.166;2023-08-01T13:38:19;23.10;99.90
25208;DHT22;13153;52.316;21.166;2023-08-01T13:40:44;23.10;99.90
25208;DHT22;13153;52.316;21.166;2023-08-01T13:43:10;23.20;99.90
25208;DHT22;13153;52.316;21.166;2023-08-01T13:45:36;23.20;99.90
25208;DHT22;13153;52.316;21.166;2023-08-01T13:48:01;23.20;99.90
25208;DHT22;13153;52.316;21.166;2023-08-01T13:50:29;23.10;99.90
25208;DHT22;13153;52.316;21.166;2023-08-01T13:52:56;22.90;99.90
25208;DHT22;13153;52.316;21.166;2023-08-01T13:55:22;22.90;99.90
25208;DHT22;13153;52.316;21.166;2023-08-01T13:57:47;22.80;99.90
25208;DHT22;13153;52.316;21.166;2023-08-01T14:00:13;22.80;99.90
25208;DHT22;13153;52.316;21.166;2023-08-01T14:02:39;22.90;99.90
25208;DHT22;13153;52.316;21.166;2023-08-01T14:05:05;22.90;99.90
25208;DHT22;13153;52.316;21.166;2023-08-01T14:07:31;22.80;99.90
25208;DHT22;13153;52.316;21.166;2023-08-01T14:09:59;22.80;99.90
25208;DHT22;13153;52.316;21.166;2023-08-01T14:12:25;22.80;99.90
25208;DHT22;13153;52.316;21.166;2023-08-01T14:14:51;22.80;99.90
25208;DHT22;13153;52.316;21.166;2023-08-01T14:17:17;22.80;99.90
25208;DHT22;13153;52.316;21.166;2023-08-01T14:19:43;22.80;99.90
25208;DHT22;13153;52.316;21.166;2023-08-01T14:22:09;22.70;99.90
25208;DHT22;13153;52.316;21.166;2023-08-01T14:24:34;22.60;99.90
25208;DHT22;13153;52.316;21.166;2023-08-01T14:27:00;22.60;99.90
25208;DHT22;13153;52.316;21.166;2023-08-01T14:29:26;22.50;99.90
25208;DHT22;13153;52.316;21.166;2023-08-01T14:31:52;22.30;99.90
25208;DHT22;13153;52.316;21.166;2023-08-01T14:34:17;22.20;99.90
25208;DHT22;13153;52.316;21.166;2023-08-01T14:36:43;22.20;99.90
25208;DHT22;13153;52.316;21.166;2023-08-01T14:39:09;22.20;99.90
25208;DHT22;13153;52.316;21.166;2023-08-01T14:41:35;22.30;99.90
25208;DHT22;13153;52.316;21.166;2023-08-01T14:44:00;22.40;99.90
25208;DHT22;13153;52.316;21.166;2023-08-01T14:46:26;22.50;99.90
25208;DHT22;13153;52.316;21.166;2023-08-01T14:48:52;22.60;99.90
25208;DHT22;13153;52.316;21.166;2023-08-01T14:51:17;22.70;99.90
25208;DHT22;13153;52.316;21.166;2023-08-01T14:53:43;22.80;99.90
25208;DHT22;13153;52.316;21.166;2023-08-01T14:56:09;22.80;99.90
25208;DHT22;13153;52.316;21.166;2023-08-01T14:58:36;22.80;99.90
25208;DHT22;13153;52.316;21.166;2023-08-01T15:01:05;22.80;99.90
25208;DHT22;13153;52.316;21.166;2023-08-01T15:03:37;22.70;99.90
25208;DHT22;13153;52.316;21.166;2023-08-01T15:06:07;22.80;99.90
25208;DHT22;13153;52.316;21.166;2023-08-01T15:08:33;22.70;99.90
25208;DHT22;13153;52.316;21.166;2023-08-01T15:11:07;22.60;99.90
25208;DHT22;13153;52.316;21.166;2023-08-01T15:13:34;22.50;99.90
25208;DHT22;13153;52.316;21.166;2023-08-01T15:16:01;22.40;99.90